XML Sitemap

This is a XML Sitemap which is supposed to be processed by search engines which follow the XML Sitemap standard like Ask.com, Bing, Google and Yahoo.
It was generated using the WordPress content management system and the Google Sitemap Generator Plugin by Arne Brachhold.
You can find more information about XML sitemaps on sitemaps.org and Google's list of sitemap programs.

URLPriorityChange frequencyLast modified (GMT)
https://www.calendarfor2019.com/november-2019-calendar-pdf-1935.html20%Monthly2017-11-26 00:55
https://www.calendarfor2019.com/march-2018-calendar-template-544.html20%Monthly2017-11-26 00:55
https://www.calendarfor2019.com/2019-calendar-canada-82.html20%Monthly2017-11-26 00:55
https://www.calendarfor2019.com/november-2018-calendar-with-holidays-1065.html20%Monthly2017-11-26 00:55
https://www.calendarfor2019.com/december-2018-calendar-with-holidays-1142.html20%Monthly2017-11-26 00:55
https://www.calendarfor2019.com/2018-calendar-excel-336.html20%Monthly2017-11-26 00:49
https://www.calendarfor2019.com/blank-monthly-calendar-2018-218.html20%Monthly2017-11-26 00:55
https://www.calendarfor2019.com/july-2019-calendar-pdf-1658.html20%Monthly2017-11-26 00:49
https://www.calendarfor2019.com/february-2018-calendar-465.html20%Monthly2017-11-26 00:55
https://www.calendarfor2019.com/august-2019-calendar-1688.html20%Monthly2017-11-26 00:48
https://www.calendarfor2019.com/april-2018-calendar-pdf-631.html20%Monthly2017-11-26 00:49
https://www.calendarfor2019.com/july-2019-calendar-cute-1648.html20%Monthly2017-11-26 00:55
https://www.calendarfor2019.com/october-2019-calendar-with-holidays-1838.html20%Monthly2017-11-26 00:49
https://www.calendarfor2019.com/april-2018-calendar-with-holidays-603.html20%Monthly2017-11-26 00:49
https://www.calendarfor2019.com/december-2018-calendar-cute-1161.html20%Monthly2017-11-26 00:55
https://www.calendarfor2019.com/monthly-calendar-printable-238.html20%Monthly2017-11-26 00:49
https://www.calendarfor2019.com/april-2019-calendar-cute-1437.html20%Monthly2017-11-26 00:48
https://www.calendarfor2019.com/2019-calendar-22.html20%Monthly2017-11-26 00:55
https://www.calendarfor2019.com/february-2018-calendar-cute-493.html20%Monthly2017-11-26 00:49
https://www.calendarfor2019.com/april-2018-printable-calendar-648.html20%Monthly2017-11-26 00:49
https://www.calendarfor2019.com/april-2019-calendar-pdf-1447.html20%Monthly2017-11-26 00:49
https://www.calendarfor2019.com/june-2018-printable-calendar-783.html20%Monthly2017-11-26 00:55
https://www.calendarfor2019.com/november-2018-calendar-pdf-1098.html20%Monthly2017-11-26 00:49
https://www.calendarfor2019.com/july-2018-calendar-793.html20%Monthly2017-11-26 00:48
https://www.calendarfor2019.com/2018-calendar-canada-377.html20%Monthly2017-11-26 00:55
https://www.calendarfor2019.com/2019-calendar-excel-152.html20%Monthly2017-11-26 00:49
https://www.calendarfor2019.com/february-2019-calendar-template-1287.html20%Monthly2017-11-26 00:55
https://www.calendarfor2019.com/february-2018-calendar-pdf-508.html20%Monthly2017-11-26 00:49
https://www.calendarfor2019.com/july-2018-calendar-pdf-833.html20%Monthly2017-11-26 00:49
https://www.calendarfor2019.com/february-2018-calendar-template-483.html20%Monthly2017-11-26 00:49
https://www.calendarfor2019.com/november-2018-calendar-1062.html20%Monthly2017-11-26 00:55
https://www.calendarfor2019.com/march-2019-calendar-1337.html20%Monthly2017-11-26 00:48
https://www.calendarfor2019.com/may-2018-calendar-pdf-698.html20%Monthly2017-11-26 00:49
https://www.calendarfor2019.com/2018-calendar-with-holidays-327.html20%Monthly2017-11-26 00:49
https://www.calendarfor2019.com/2018-calendar-printable-307.html20%Monthly2017-11-26 00:55
https://www.calendarfor2019.com/2019-calendar-pdf-72.html20%Monthly2017-11-26 00:49
https://www.calendarfor2019.com/june-2019-calendar-1548.html20%Monthly2017-11-26 00:55
https://www.calendarfor2019.com/january-2019-printable-calendar-1253.html20%Monthly2017-11-26 00:49
https://www.calendarfor2019.com/august-2018-printable-calendar-917.html20%Monthly2017-11-26 00:55
https://www.calendarfor2019.com/august-2019-calendar-template-1704.html20%Monthly2017-11-26 00:49
https://www.calendarfor2019.com/january-2019-calendar-cute-1222.html20%Monthly2017-11-26 00:55
https://www.calendarfor2019.com/september-2018-printable-calendar-985.html20%Monthly2017-11-26 00:49
https://www.calendarfor2019.com/february-2019-calendar-with-holidays-1266.html20%Monthly2017-11-26 00:48
https://www.calendarfor2019.com/january-2019-calendar-1196.html20%Monthly2017-11-26 00:55
https://www.calendarfor2019.com/september-2018-calendar-931.html20%Monthly2017-11-26 00:49
https://www.calendarfor2019.com/2019-calendar-uk-142.html20%Monthly2017-11-26 00:49
https://www.calendarfor2019.com/march-2018-calendar-525.html20%Monthly2017-11-26 00:49
https://www.calendarfor2019.com/july-2019-calendar-template-1638.html20%Monthly2017-11-26 00:49
https://www.calendarfor2019.com/december-2018-calendar-with-holidays-uk-1175.html20%Monthly2017-11-26 00:48
https://www.calendarfor2019.com/2018-calendar-hong-kong-387.html20%Monthly2017-11-26 00:55
https://www.calendarfor2019.com/september-2019-calendar-1758.html20%Monthly2017-11-26 00:49
https://www.calendarfor2019.com/yearly-calendar-2019-258.html20%Monthly2017-11-26 00:55
https://www.calendarfor2019.com/yearly-calendar-template-278.html20%Monthly2017-11-26 00:49
https://www.calendarfor2019.com/november-2018-calendar-cute-1095.html20%Monthly2017-11-26 00:49
https://www.calendarfor2019.com/monthly-calendar-template-228.html20%Monthly2017-11-26 00:48
https://www.calendarfor2019.com/january-2019-calendar-pdf-1236.html20%Monthly2017-11-26 00:49
https://www.calendarfor2019.com/august-2019-calendar-pdf-1726.html20%Monthly2017-11-26 00:49
https://www.calendarfor2019.com/february-2019-calendar-with-holidays-uk-1314.html20%Monthly2017-11-26 00:49
https://www.calendarfor2019.com/november-2019-calendar-with-holidays-uk-1947.html20%Monthly2017-11-26 00:49
https://www.calendarfor2019.com/december-2019-calendar-1971.html20%Monthly2017-11-26 00:49
https://www.calendarfor2019.com/2019-monthly-calendar-template-112.html20%Monthly2017-11-26 00:48
https://www.calendarfor2019.com/april-2019-calendar-with-holidays-uk-1457.html20%Monthly2017-11-26 00:49
https://www.calendarfor2019.com/may-2019-calendar-template-1498.html20%Monthly2017-11-26 00:49
https://www.calendarfor2019.com/july-2018-calendar-template-813.html20%Monthly2017-11-26 00:48
https://www.calendarfor2019.com/july-2019-calendar-1618.html20%Monthly2017-11-26 00:49
https://www.calendarfor2019.com/june-2018-calendar-with-holidays-734.html20%Monthly2017-11-26 00:49
https://www.calendarfor2019.com/blank-monthly-calendar-2019-130.html20%Monthly2017-11-04 01:15
https://www.calendarfor2019.com/january-2019-calendar-template-1216.html20%Monthly2017-11-26 00:55
https://www.calendarfor2019.com/august-2018-calendar-template-881.html20%Monthly2017-11-26 00:49
https://www.calendarfor2019.com/september-2019-printable-calendar-1811.html20%Monthly2017-11-26 00:49
https://www.calendarfor2019.com/cute-2019-calendar-162.html20%Monthly2017-11-04 01:07
https://www.calendarfor2019.com/november-2019-calendar-with-holidays-1903.html20%Monthly2017-11-26 00:49
https://www.calendarfor2019.com/2019-calendar-hong-kong-92.html20%Monthly2017-11-26 00:49
https://www.calendarfor2019.com/calendar-for-2019-9.html20%Monthly2017-11-04 01:07